sensor_id;sensor_type;location;lat;lon;timestamp;P1;durP1;ratioP1;P2;durP2;ratioP2
65373;SDS011;52070;53.760;9.678;2023-08-06T00:00:58;5.60;;;2.65;;
65373;SDS011;52070;53.760;9.678;2023-08-06T00:03:25;4.95;;;2.55;;
65373;SDS011;52070;53.760;9.678;2023-08-06T00:05:52;5.82;;;2.60;;
65373;SDS011;52070;53.760;9.678;2023-08-06T00:08:19;3.03;;;2.25;;
65373;SDS011;52070;53.760;9.678;2023-08-06T00:10:47;4.65;;;2.55;;
65373;SDS011;52070;53.760;9.678;2023-08-06T00:13:15;5.75;;;2.83;;
65373;SDS011;52070;53.760;9.678;2023-08-06T00:15:42;6.45;;;2.75;;
65373;SDS011;52070;53.760;9.678;2023-08-06T00:18:09;6.82;;;2.88;;
65373;SDS011;52070;53.760;9.678;2023-08-06T00:20:38;5.40;;;2.80;;
65373;SDS011;52070;53.760;9.678;2023-08-06T00:23:05;5.07;;;3.00;;
65373;SDS011;52070;53.760;9.678;2023-08-06T00:25:32;8.15;;;3.15;;
65373;SDS011;52070;53.760;9.678;2023-08-06T00:27:59;5.82;;;3.08;;
65373;SDS011;52070;53.760;9.678;2023-08-06T00:30:28;6.75;;;3.38;;
65373;SDS011;52070;53.760;9.678;2023-08-06T00:32:55;7.65;;;3.55;;
65373;SDS011;52070;53.760;9.678;2023-08-06T00:35:22;4.47;;;3.42;;
65373;SDS011;52070;53.760;9.678;2023-08-06T00:37:49;4.70;;;3.78;;
65373;SDS011;52070;53.760;9.678;2023-08-06T00:40:16;6.15;;;3.58;;
65373;SDS011;52070;53.760;9.678;2023-08-06T00:42:46;8.90;;;3.83;;
65373;SDS011;52070;53.760;9.678;2023-08-06T00:45:13;6.95;;;4.03;;
65373;SDS011;52070;53.760;9.678;2023-08-06T00:47:41;6.60;;;4.20;;
65373;SDS011;52070;53.760;9.678;2023-08-06T00:50:08;7.35;;;4.30;;
65373;SDS011;52070;53.760;9.678;2023-08-06T00:52:35;6.68;;;4.25;;
65373;SDS011;52070;53.760;9.678;2023-08-06T00:55:03;7.18;;;4.50;;
65373;SDS011;52070;53.760;9.678;2023-08-06T00:57:31;6.38;;;4.10;;
65373;SDS011;52070;53.760;9.678;2023-08-06T00:59:58;8.30;;;4.45;;
65373;SDS011;52070;53.760;9.678;2023-08-06T01:02:25;8.82;;;4.25;;
65373;SDS011;52070;53.760;9.678;2023-08-06T01:04:53;5.13;;;3.45;;
65373;SDS011;52070;53.760;9.678;2023-08-06T01:07:22;5.20;;;4.13;;
65373;SDS011;52070;53.760;9.678;2023-08-06T01:10:03;7.78;;;4.05;;
65373;SDS011;52070;53.760;9.678;2023-08-06T01:12:43;6.03;;;3.70;;
65373;SDS011;52070;53.760;9.678;2023-08-06T01:15:15;5.88;;;3.65;;
65373;SDS011;52070;53.760;9.678;2023-08-06T01:17:45;7.57;;;4.00;;
65373;SDS011;52070;53.760;9.678;2023-08-06T01:20:14;10.68;;;4.28;;
65373;SDS011;52070;53.760;9.678;2023-08-06T01:22:42;7.82;;;4.03;;
65373;SDS011;52070;53.760;9.678;2023-08-06T01:25:09;5.45;;;3.80;;
65373;SDS011;52070;53.760;9.678;2023-08-06T01:27:38;6.03;;;3.58;;
65373;SDS011;52070;53.760;9.678;2023-08-06T01:30:15;8.90;;;3.90;;
65373;SDS011;52070;53.760;9.678;2023-08-06T01:32:44;6.45;;;3.80;;
65373;SDS011;52070;53.760;9.678;2023-08-06T01:35:15;5.43;;;3.92;;
65373;SDS011;52070;53.760;9.678;2023-08-06T01:37:44;6.82;;;4.15;;
65373;SDS011;52070;53.760;9.678;2023-08-06T01:40:12;7.65;;;3.80;;
65373;SDS011;52070;53.760;9.678;2023-08-06T01:42:40;6.10;;;4.40;;
65373;SDS011;52070;53.760;9.678;2023-08-06T01:45:07;5.28;;;4.10;;
65373;SDS011;52070;53.760;9.678;2023-08-06T01:47:35;6.60;;;4.28;;
65373;SDS011;52070;53.760;9.678;2023-08-06T01:50:02;5.93;;;3.83;;
65373;SDS011;52070;53.760;9.678;2023-08-06T01:52:29;7.03;;;4.00;;
65373;SDS011;52070;53.760;9.678;2023-08-06T01:54:58;7.10;;;4.22;;
65373;SDS011;52070;53.760;9.678;2023-08-06T01:57:25;6.80;;;4.45;;
65373;SDS011;52070;53.760;9.678;2023-08-06T01:59:51;8.32;;;4.20;;
65373;SDS011;52070;53.760;9.678;2023-08-06T02:02:18;7.65;;;4.45;;
65373;SDS011;52070;53.760;9.678;2023-08-06T02:04:45;7.18;;;4.18;;
65373;SDS011;52070;53.760;9.678;2023-08-06T02:07:12;7.35;;;4.80;;
65373;SDS011;52070;53.760;9.678;2023-08-06T02:09:39;9.23;;;4.78;;
65373;SDS011;52070;53.760;9.678;2023-08-06T02:12:08;6.30;;;4.10;;
65373;SDS011;52070;53.760;9.678;2023-08-06T02:14:35;6.78;;;4.50;;
65373;SDS011;52070;53.760;9.678;2023-08-06T02:17:02;5.05;;;4.15;;
65373;SDS011;52070;53.760;9.678;2023-08-06T02:19:29;8.93;;;4.18;;
65373;SDS011;52070;53.760;9.678;2023-08-06T02:21:56;9.13;;;3.75;;
65373;SDS011;52070;53.760;9.678;2023-08-06T02:24:23;4.82;;;3.78;;
65373;SDS011;52070;53.760;9.678;2023-08-06T02:26:50;6.28;;;4.07;;
65373;SDS011;52070;53.760;9.678;2023-08-06T02:31:48;4.97;;;3.83;;
65373;SDS011;52070;53.760;9.678;2023-08-06T02:34:15;6.45;;;4.40;;
65373;SDS011;52070;53.760;9.678;2023-08-06T02:36:42;11.60;;;3.83;;
65373;SDS011;52070;53.760;9.678;2023-08-06T02:39:09;5.57;;;3.75;;
65373;SDS011;52070;53.760;9.678;2023-08-06T02:41:36;9.27;;;3.83;;
65373;SDS011;52070;53.760;9.678;2023-08-06T02:44:03;9.50;;;4.28;;
65373;SDS011;52070;53.760;9.678;2023-08-06T02:46:31;7.28;;;3.88;;
65373;SDS011;52070;53.760;9.678;2023-08-06T02:48:58;6.57;;;3.63;;
65373;SDS011;52070;53.760;9.678;2023-08-06T02:51:25;6.13;;;4.38;;
65373;SDS011;52070;53.760;9.678;2023-08-06T02:53:52;6.45;;;3.85;;
65373;SDS011;52070;53.760;9.678;2023-08-06T02:56:19;8.18;;;3.83;;
65373;SDS011;52070;53.760;9.678;2023-08-06T02:58:46;4.88;;;3.85;;
65373;SDS011;52070;53.760;9.678;2023-08-06T03:01:13;7.78;;;4.07;;
65373;SDS011;52070;53.760;9.678;2023-08-06T03:03:42;4.63;;;3.45;;
65373;SDS011;52070;53.760;9.678;2023-08-06T03:06:09;5.85;;;4.30;;
65373;SDS011;52070;53.760;9.678;2023-08-06T03:08:36;7.03;;;3.83;;
65373;SDS011;52070;53.760;9.678;2023-08-06T03:11:03;4.47;;;3.80;;
65373;SDS011;52070;53.760;9.678;2023-08-06T03:13:30;10.30;;;3.90;;
65373;SDS011;52070;53.760;9.678;2023-08-06T03:15:57;5.60;;;4.13;;
65373;SDS011;52070;53.760;9.678;2023-08-06T03:18:26;6.13;;;3.92;;
65373;SDS011;52070;53.760;9.678;2023-08-06T03:20:54;5.88;;;3.67;;
65373;SDS011;52070;53.760;9.678;2023-08-06T03:23:22;8.60;;;3.90;;
65373;SDS011;52070;53.760;9.678;2023-08-06T03:25:49;7.00;;;3.67;;
65373;SDS011;52070;53.760;9.678;2023-08-06T03:28:16;7.20;;;3.90;;
65373;SDS011;52070;53.760;9.678;2023-08-06T03:30:43;4.18;;;3.38;;
65373;SDS011;52070;53.760;9.678;2023-08-06T03:33:10;5.68;;;4.00;;
65373;SDS011;52070;53.760;9.678;2023-08-06T03:35:37;4.13;;;3.33;;
65373;SDS011;52070;53.760;9.678;2023-08-06T03:38:05;8.20;;;3.83;;
65373;SDS011;52070;53.760;9.678;2023-08-06T03:40:34;9.88;;;3.67;;
65373;SDS011;52070;53.760;9.678;2023-08-06T03:43:01;6.50;;;3.45;;
65373;SDS011;52070;53.760;9.678;2023-08-06T03:45:28;3.17;;;2.88;;
65373;SDS011;52070;53.760;9.678;2023-08-06T03:47:55;7.80;;;3.67;;
65373;SDS011;52070;53.760;9.678;2023-08-06T03:50:22;5.47;;;3.85;;
65373;SDS011;52070;53.760;9.678;2023-08-06T03:52:49;4.32;;;3.10;;
65373;SDS011;52070;53.760;9.678;2023-08-06T03:55:17;5.63;;;3.20;;
65373;SDS011;52070;53.760;9.678;2023-08-06T03:57:44;6.18;;;3.45;;
65373;SDS011;52070;53.760;9.678;2023-08-06T04:00:11;5.45;;;3.60;;
65373;SDS011;52070;53.760;9.678;2023-08-06T04:02:39;5.65;;;3.60;;
65373;SDS011;52070;53.760;9.678;2023-08-06T04:05:06;5.88;;;3.53;;
65373;SDS011;52070;53.760;9.678;2023-08-06T04:07:34;6.78;;;4.80;;
65373;SDS011;52070;53.760;9.678;2023-08-06T04:10:02;6.20;;;3.50;;
65373;SDS011;52070;53.760;9.678;2023-08-06T04:12:31;4.95;;;3.47;;
65373;SDS011;52070;53.760;9.678;2023-08-06T04:15:02;6.38;;;3.50;;
65373;SDS011;52070;53.760;9.678;2023-08-06T04:17:29;4.30;;;3.25;;
65373;SDS011;52070;53.760;9.678;2023-08-06T04:19:56;5.68;;;3.33;;
65373;SDS011;52070;53.760;9.678;2023-08-06T04:22:24;10.48;;;3.60;;
65373;SDS011;52070;53.760;9.678;2023-08-06T04:24:51;6.38;;;3.28;;
65373;SDS011;52070;53.760;9.678;2023-08-06T04:27:18;5.90;;;3.33;;
65373;SDS011;52070;53.760;9.678;2023-08-06T04:29:47;5.50;;;2.97;;
65373;SDS011;52070;53.760;9.678;2023-08-06T04:32:14;8.57;;;3.60;;
65373;SDS011;52070;53.760;9.678;2023-08-06T04:34:41;7.88;;;3.45;;
65373;SDS011;52070;53.760;9.678;2023-08-06T04:37:08;4.72;;;3.13;;
65373;SDS011;52070;53.760;9.678;2023-08-06T04:39:35;6.35;;;3.30;;
65373;SDS011;52070;53.760;9.678;2023-08-06T04:42:02;7.47;;;3.30;;
65373;SDS011;52070;53.760;9.678;2023-08-06T04:44:30;8.30;;;3.20;;
65373;SDS011;52070;53.760;9.678;2023-08-06T04:46:58;6.85;;;3.45;;
65373;SDS011;52070;53.760;9.678;2023-08-06T04:49:25;7.00;;;3.97;;
65373;SDS011;52070;53.760;9.678;2023-08-06T04:51:52;8.13;;;3.30;;
65373;SDS011;52070;53.760;9.678;2023-08-06T04:54:19;8.68;;;3.30;;
65373;SDS011;52070;53.760;9.678;2023-08-06T04:56:46;5.10;;;3.00;;
65373;SDS011;52070;53.760;9.678;2023-08-06T04:59:13;10.77;;;3.50;;
65373;SDS011;52070;53.760;9.678;2023-08-06T05:01:40;8.88;;;3.58;;
65373;SDS011;52070;53.760;9.678;2023-08-06T05:04:08;6.68;;;3.58;;
65373;SDS011;52070;53.760;9.678;2023-08-06T05:06:35;8.43;;;3.42;;
65373;SDS011;52070;53.760;9.678;2023-08-06T05:09:03;5.38;;;3.22;;
65373;SDS011;52070;53.760;9.678;2023-08-06T05:11:31;5.90;;;3.17;;
65373;SDS011;52070;53.760;9.678;2023-08-06T05:13:58;5.38;;;3.00;;
65373;SDS011;52070;53.760;9.678;2023-08-06T05:16:25;7.03;;;3.70;;
65373;SDS011;52070;53.760;9.678;2023-08-06T05:18:52;9.65;;;3.80;;
65373;SDS011;52070;53.760;9.678;2023-08-06T05:21:20;9.40;;;3.97;;
65373;SDS011;52070;53.760;9.678;2023-08-06T05:23:47;8.38;;;3.40;;
65373;SDS011;52070;53.760;9.678;2023-08-06T05:26:14;8.18;;;3.60;;
65373;SDS011;52070;53.760;9.678;2023-08-06T05:28:44;7.43;;;3.60;;
65373;SDS011;52070;53.760;9.678;2023-08-06T05:31:11;5.68;;;3.55;;
65373;SDS011;52070;53.760;9.678;2023-08-06T05:33:38;7.85;;;3.55;;
65373;SDS011;52070;53.760;9.678;2023-08-06T05:36:05;9.93;;;3.80;;
65373;SDS011;52070;53.760;9.678;2023-08-06T05:38:33;6.13;;;3.58;;
65373;SDS011;52070;53.760;9.678;2023-08-06T05:41:00;9.65;;;3.30;;
65373;SDS011;52070;53.760;9.678;2023-08-06T05:43:27;7.60;;;4.00;;
65373;SDS011;52070;53.760;9.678;2023-08-06T05:45:55;8.70;;;3.75;;
65373;SDS011;52070;53.760;9.678;2023-08-06T05:48:23;7.65;;;3.65;;
65373;SDS011;52070;53.760;9.678;2023-08-06T05:50:50;5.72;;;3.53;;
65373;SDS011;52070;53.760;9.678;2023-08-06T05:53:18;5.97;;;3.53;;
65373;SDS011;52070;53.760;9.678;2023-08-06T05:55:46;6.00;;;3.47;;
65373;SDS011;52070;53.760;9.678;2023-08-06T05:58:14;12.40;;;4.57;;
65373;SDS011;52070;53.760;9.678;2023-08-06T06:00:41;8.90;;;3.88;;
65373;SDS011;52070;53.760;9.678;2023-08-06T06:03:08;6.90;;;3.55;;
65373;SDS011;52070;53.760;9.678;2023-08-06T06:05:37;7.65;;;3.88;;
65373;SDS011;52070;53.760;9.678;2023-08-06T06:08:04;11.30;;;4.10;;
65373;SDS011;52070;53.760;9.678;2023-08-06T06:10:31;8.63;;;3.65;;
65373;SDS011;52070;53.760;9.678;2023-08-06T06:12:59;7.43;;;3.85;;
65373;SDS011;52070;53.760;9.678;2023-08-06T06:15:26;5.65;;;4.00;;
65373;SDS011;52070;53.760;9.678;2023-08-06T06:17:53;7.38;;;3.78;;
65373;SDS011;52070;53.760;9.678;2023-08-06T06:20:20;7.30;;;4.13;;
65373;SDS011;52070;53.760;9.678;2023-08-06T06:22:47;9.60;;;3.92;;
65373;SDS011;52070;53.760;9.678;2023-08-06T06:25:14;10.32;;;4.30;;
65373;SDS011;52070;53.760;9.678;2023-08-06T06:27:41;7.72;;;4.28;;
65373;SDS011;52070;53.760;9.678;2023-08-06T06:30:10;6.43;;;3.97;;
65373;SDS011;52070;53.760;9.678;2023-08-06T06:32:38;7.95;;;4.28;;
65373;SDS011;52070;53.760;9.678;2023-08-06T06:35:06;6.15;;;3.80;;
65373;SDS011;52070;53.760;9.678;2023-08-06T06:37:34;8.02;;;3.80;;
65373;SDS011;52070;53.760;9.678;2023-08-06T06:40:04;6.68;;;4.30;;
65373;SDS011;52070;53.760;9.678;2023-08-06T06:43:03;6.65;;;4.22;;
65373;SDS011;52070;53.760;9.678;2023-08-06T06:45:31;10.20;;;4.50;;
65373;SDS011;52070;53.760;9.678;2023-08-06T06:47:58;11.35;;;4.97;;
65373;SDS011;52070;53.760;9.678;2023-08-06T06:50:25;6.35;;;3.88;;
65373;SDS011;52070;53.760;9.678;2023-08-06T06:53:01;6.18;;;4.07;;
65373;SDS011;52070;53.760;9.678;2023-08-06T06:55:28;6.82;;;4.35;;
65373;SDS011;52070;53.760;9.678;2023-08-06T06:57:55;9.02;;;4.20;;
65373;SDS011;52070;53.760;9.678;2023-08-06T07:00:22;7.97;;;4.40;;
65373;SDS011;52070;53.760;9.678;2023-08-06T07:02:50;10.90;;;4.72;;
65373;SDS011;52070;53.760;9.678;2023-08-06T07:05:18;5.57;;;3.50;;
65373;SDS011;52070;53.760;9.678;2023-08-06T07:07:45;6.50;;;3.63;;
65373;SDS011;52070;53.760;9.678;2023-08-06T07:10:12;7.80;;;3.92;;
65373;SDS011;52070;53.760;9.678;2023-08-06T07:12:39;9.75;;;4.10;;
65373;SDS011;52070;53.760;9.678;2023-08-06T07:15:08;7.28;;;4.40;;
65373;SDS011;52070;53.760;9.678;2023-08-06T07:17:43;9.10;;;4.15;;
65373;SDS011;52070;53.760;9.678;2023-08-06T07:20:11;5.13;;;3.78;;
65373;SDS011;52070;53.760;9.678;2023-08-06T07:22:38;9.70;;;4.50;;
65373;SDS011;52070;53.760;9.678;2023-08-06T07:25:05;7.18;;;3.97;;
65373;SDS011;52070;53.760;9.678;2023-08-06T07:27:32;7.30;;;3.85;;
65373;SDS011;52070;53.760;9.678;2023-08-06T07:29:59;12.27;;;4.07;;
65373;SDS011;52070;53.760;9.678;2023-08-06T07:32:26;8.88;;;4.25;;
65373;SDS011;52070;53.760;9.678;2023-08-06T07:34:54;6.25;;;3.97;;
65373;SDS011;52070;53.760;9.678;2023-08-06T07:37:26;6.72;;;3.95;;
65373;SDS011;52070;53.760;9.678;2023-08-06T07:39:53;6.57;;;3.88;;
65373;SDS011;52070;53.760;9.678;2023-08-06T07:42:20;8.63;;;4.10;;
65373;SDS011;52070;53.760;9.678;2023-08-06T07:44:50;7.13;;;3.90;;
65373;SDS011;52070;53.760;9.678;2023-08-06T07:47:18;7.47;;;4.13;;
65373;SDS011;52070;53.760;9.678;2023-08-06T07:49:45;5.43;;;3.85;;
65373;SDS011;52070;53.760;9.678;2023-08-06T07:52:12;8.27;;;4.20;;
65373;SDS011;52070;53.760;9.678;2023-08-06T07:54:40;9.57;;;4.00;;
65373;SDS011;52070;53.760;9.678;2023-08-06T07:57:08;6.68;;;3.92;;
65373;SDS011;52070;53.760;9.678;2023-08-06T07:59:35;5.22;;;3.80;;
65373;SDS011;52070;53.760;9.678;2023-08-06T08:02:02;7.35;;;4.75;;
65373;SDS011;52070;53.760;9.678;2023-08-06T08:04:31;13.13;;;4.50;;
65373;SDS011;52070;53.760;9.678;2023-08-06T08:06:57;7.90;;;4.03;;
65373;SDS011;52070;53.760;9.678;2023-08-06T08:09:24;8.23;;;4.97;;
65373;SDS011;52070;53.760;9.678;2023-08-06T08:11:53;7.63;;;4.20;;
65373;SDS011;52070;53.760;9.678;2023-08-06T08:14:20;9.40;;;4.50;;
65373;SDS011;52070;53.760;9.678;2023-08-06T08:16:47;7.22;;;4.53;;
65373;SDS011;52070;53.760;9.678;2023-08-06T08:19:14;9.10;;;3.60;;
65373;SDS011;52070;53.760;9.678;2023-08-06T08:21:40;5.70;;;4.13;;
65373;SDS011;52070;53.760;9.678;2023-08-06T08:24:07;8.10;;;4.10;;
65373;SDS011;52070;53.760;9.678;2023-08-06T08:26:34;16.40;;;4.88;;
65373;SDS011;52070;53.760;9.678;2023-08-06T08:29:03;9.07;;;4.10;;
65373;SDS011;52070;53.760;9.678;2023-08-06T08:31:29;8.98;;;4.18;;
65373;SDS011;52070;53.760;9.678;2023-08-06T08:33:56;6.57;;;4.03;;
65373;SDS011;52070;53.760;9.678;2023-08-06T08:36:24;10.55;;;4.07;;
65373;SDS011;52070;53.760;9.678;2023-08-06T08:38:51;8.30;;;4.15;;
65373;SDS011;52070;53.760;9.678;2023-08-06T08:41:19;18.35;;;4.40;;
65373;SDS011;52070;53.760;9.678;2023-08-06T08:43:46;6.80;;;3.83;;
65373;SDS011;52070;53.760;9.678;2023-08-06T08:46:17;6.00;;;4.07;;
65373;SDS011;52070;53.760;9.678;2023-08-06T08:48:46;8.07;;;4.20;;
65373;SDS011;52070;53.760;9.678;2023-08-06T08:51:13;8.30;;;4.55;;
65373;SDS011;52070;53.760;9.678;2023-08-06T08:53:41;5.82;;;4.13;;
65373;SDS011;52070;53.760;9.678;2023-08-06T08:56:10;7.32;;;4.28;;
65373;SDS011;52070;53.760;9.678;2023-08-06T08:58:40;6.32;;;4.10;;
65373;SDS011;52070;53.760;9.678;2023-08-06T09:01:07;7.38;;;4.28;;
65373;SDS011;52070;53.760;9.678;2023-08-06T09:03:37;8.82;;;4.13;;
65373;SDS011;52070;53.760;9.678;2023-08-06T09:06:05;6.63;;;3.45;;
65373;SDS011;52070;53.760;9.678;2023-08-06T09:08:34;7.65;;;4.07;;
65373;SDS011;52070;53.760;9.678;2023-08-06T09:11:04;10.20;;;4.38;;
65373;SDS011;52070;53.760;9.678;2023-08-06T09:13:31;7.07;;;4.07;;
65373;SDS011;52070;53.760;9.678;2023-08-06T09:15:58;6.57;;;3.70;;
65373;SDS011;52070;53.760;9.678;2023-08-06T09:18:25;6.40;;;3.80;;
65373;SDS011;52070;53.760;9.678;2023-08-06T09:20:55;4.72;;;3.15;;
65373;SDS011;52070;53.760;9.678;2023-08-06T09:23:27;7.50;;;4.07;;
65373;SDS011;52070;53.760;9.678;2023-08-06T09:25:56;4.93;;;3.58;;
65373;SDS011;52070;53.760;9.678;2023-08-06T09:28:23;6.20;;;3.70;;
65373;SDS011;52070;53.760;9.678;2023-08-06T09:30:52;7.03;;;3.90;;
65373;SDS011;52070;53.760;9.678;2023-08-06T09:33:20;8.77;;;3.83;;
65373;SDS011;52070;53.760;9.678;2023-08-06T09:35:49;7.13;;;3.53;;
65373;SDS011;52070;53.760;9.678;2023-08-06T09:38:17;6.28;;;3.92;;
65373;SDS011;52070;53.760;9.678;2023-08-06T09:40:44;7.43;;;4.13;;
65373;SDS011;52070;53.760;9.678;2023-08-06T09:43:11;8.65;;;3.17;;
65373;SDS011;52070;53.760;9.678;2023-08-06T09:45:39;7.00;;;3.40;;
65373;SDS011;52070;53.760;9.678;2023-08-06T09:48:06;7.47;;;3.00;;
65373;SDS011;52070;53.760;9.678;2023-08-06T09:50:35;4.90;;;2.70;;
65373;SDS011;52070;53.760;9.678;2023-08-06T09:53:04;5.28;;;2.80;;
65373;SDS011;52070;53.760;9.678;2023-08-06T09:55:34;4.75;;;2.88;;
65373;SDS011;52070;53.760;9.678;2023-08-06T09:58:01;5.75;;;3.08;;
65373;SDS011;52070;53.760;9.678;2023-08-06T10:00:29;6.68;;;3.20;;
65373;SDS011;52070;53.760;9.678;2023-08-06T10:02:59;8.13;;;3.28;;
65373;SDS011;52070;53.760;9.678;2023-08-06T10:05:26;7.60;;;3.60;;
65373;SDS011;52070;53.760;9.678;2023-08-06T10:07:54;9.93;;;3.88;;
65373;SDS011;52070;53.760;9.678;2023-08-06T10:10:23;6.43;;;4.30;;
65373;SDS011;52070;53.760;9.678;2023-08-06T10:12:54;9.05;;;3.70;;
65373;SDS011;52070;53.760;9.678;2023-08-06T10:15:24;9.52;;;4.07;;
65373;SDS011;52070;53.760;9.678;2023-08-06T10:17:53;5.05;;;3.38;;
65373;SDS011;52070;53.760;9.678;2023-08-06T10:20:22;5.32;;;3.70;;
65373;SDS011;52070;53.760;9.678;2023-08-06T10:22:59;4.75;;;3.50;;
65373;SDS011;52070;53.760;9.678;2023-08-06T10:25:30;5.82;;;3.20;;
65373;SDS011;52070;53.760;9.678;2023-08-06T10:28:00;5.75;;;3.65;;
65373;SDS011;52070;53.760;9.678;2023-08-06T10:30:28;7.45;;;3.15;;
65373;SDS011;52070;53.760;9.678;2023-08-06T10:32:56;5.43;;;3.67;;
65373;SDS011;52070;53.760;9.678;2023-08-06T10:35:29;8.45;;;4.13;;
65373;SDS011;52070;53.760;9.678;2023-08-06T10:37:58;4.95;;;3.67;;
65373;SDS011;52070;53.760;9.678;2023-08-06T10:40:26;8.63;;;4.10;;
65373;SDS011;52070;53.760;9.678;2023-08-06T10:42:55;5.28;;;4.03;;
65373;SDS011;52070;53.760;9.678;2023-08-06T10:45:23;7.38;;;3.92;;
65373;SDS011;52070;53.760;9.678;2023-08-06T10:47:54;8.13;;;4.13;;
65373;SDS011;52070;53.760;9.678;2023-08-06T10:50:22;7.78;;;4.10;;
65373;SDS011;52070;53.760;9.678;2023-08-06T10:52:49;8.80;;;4.10;;
65373;SDS011;52070;53.760;9.678;2023-08-06T10:55:21;7.78;;;4.30;;
65373;SDS011;52070;53.760;9.678;2023-08-06T10:57:49;8.82;;;4.68;;
65373;SDS011;52070;53.760;9.678;2023-08-06T11:00:16;5.28;;;4.15;;
65373;SDS011;52070;53.760;9.678;2023-08-06T11:02:44;13.15;;;4.72;;
65373;SDS011;52070;53.760;9.678;2023-08-06T11:05:13;7.25;;;4.40;;
65373;SDS011;52070;53.760;9.678;2023-08-06T11:07:40;6.95;;;4.60;;
65373;SDS011;52070;53.760;9.678;2023-08-06T11:10:08;7.97;;;4.40;;
65373;SDS011;52070;53.760;9.678;2023-08-06T11:12:37;8.60;;;4.60;;
65373;SDS011;52070;53.760;9.678;2023-08-06T11:15:05;7.03;;;4.25;;
65373;SDS011;52070;53.760;9.678;2023-08-06T11:17:33;6.50;;;4.68;;
65373;SDS011;52070;53.760;9.678;2023-08-06T11:20:03;9.73;;;5.05;;
65373;SDS011;52070;53.760;9.678;2023-08-06T11:22:31;7.57;;;4.93;;
65373;SDS011;52070;53.760;9.678;2023-08-06T11:24:58;7.88;;;4.43;;
65373;SDS011;52070;53.760;9.678;2023-08-06T11:27:26;7.25;;;4.53;;
65373;SDS011;52070;53.760;9.678;2023-08-06T11:29:54;11.85;;;4.68;;
65373;SDS011;52070;53.760;9.678;2023-08-06T11:32:21;7.13;;;4.78;;
65373;SDS011;52070;53.760;9.678;2023-08-06T11:34:48;7.07;;;4.40;;
65373;SDS011;52070;53.760;9.678;2023-08-06T11:37:17;8.40;;;5.35;;
65373;SDS011;52070;53.760;9.678;2023-08-06T11:39:47;8.90;;;5.38;;
65373;SDS011;52070;53.760;9.678;2023-08-06T11:42:15;9.85;;;5.47;;
65373;SDS011;52070;53.760;9.678;2023-08-06T11:44:43;8.70;;;4.60;;
65373;SDS011;52070;53.760;9.678;2023-08-06T11:47:12;9.52;;;5.70;;
65373;SDS011;52070;53.760;9.678;2023-08-06T11:49:41;10.32;;;5.70;;
65373;SDS011;52070;53.760;9.678;2023-08-06T11:52:12;8.38;;;5.40;;
65373;SDS011;52070;53.760;9.678;2023-08-06T11:54:42;8.60;;;5.60;;
65373;SDS011;52070;53.760;9.678;2023-08-06T11:57:10;9.98;;;5.10;;
65373;SDS011;52070;53.760;9.678;2023-08-06T11:59:37;6.57;;;5.05;;
65373;SDS011;52070;53.760;9.678;2023-08-06T12:02:07;10.43;;;5.25;;
65373;SDS011;52070;53.760;9.678;2023-08-06T12:07:37;7.35;;;5.30;;
65373;SDS011;52070;53.760;9.678;2023-08-06T12:10:07;8.57;;;4.95;;
65373;SDS011;52070;53.760;9.678;2023-08-06T12:12:35;6.18;;;4.53;;
65373;SDS011;52070;53.760;9.678;2023-08-06T12:15:03;7.25;;;4.85;;
65373;SDS011;52070;53.760;9.678;2023-08-06T12:17:31;8.88;;;4.82;;
65373;SDS011;52070;53.760;9.678;2023-08-06T12:19:58;7.22;;;4.22;;
65373;SDS011;52070;53.760;9.678;2023-08-06T12:22:26;8.88;;;4.57;;
65373;SDS011;52070;53.760;9.678;2023-08-06T12:24:53;6.43;;;4.18;;
65373;SDS011;52070;53.760;9.678;2023-08-06T12:27:21;6.30;;;3.92;;
65373;SDS011;52070;53.760;9.678;2023-08-06T12:29:48;7.82;;;3.88;;
65373;SDS011;52070;53.760;9.678;2023-08-06T12:32:15;7.95;;;3.47;;
65373;SDS011;52070;53.760;9.678;2023-08-06T12:34:43;5.95;;;3.33;;
65373;SDS011;52070;53.760;9.678;2023-08-06T12:37:10;8.30;;;3.22;;
65373;SDS011;52070;53.760;9.678;2023-08-06T12:39:37;4.32;;;2.47;;
65373;SDS011;52070;53.760;9.678;2023-08-06T12:42:04;3.92;;;2.47;;
65373;SDS011;52070;53.760;9.678;2023-08-06T12:44:33;3.40;;;2.50;;
65373;SDS011;52070;53.760;9.678;2023-08-06T12:47:00;4.25;;;2.10;;
65373;SDS011;52070;53.760;9.678;2023-08-06T12:49:27;5.25;;;2.40;;
65373;SDS011;52070;53.760;9.678;2023-08-06T12:51:56;3.42;;;2.28;;
65373;SDS011;52070;53.760;9.678;2023-08-06T12:54:25;4.90;;;2.25;;
65373;SDS011;52070;53.760;9.678;2023-08-06T12:56:52;3.53;;;2.30;;
65373;SDS011;52070;53.760;9.678;2023-08-06T12:59:19;5.20;;;2.42;;
65373;SDS011;52070;53.760;9.678;2023-08-06T13:01:47;2.95;;;1.92;;
65373;SDS011;52070;53.760;9.678;2023-08-06T13:04:14;3.55;;;2.20;;
65373;SDS011;52070;53.760;9.678;2023-08-06T13:06:42;2.90;;;2.00;;
65373;SDS011;52070;53.760;9.678;2023-08-06T13:09:08;4.55;;;2.33;;
65373;SDS011;52070;53.760;9.678;2023-08-06T13:11:36;3.03;;;2.10;;
65373;SDS011;52070;53.760;9.678;2023-08-06T13:14:04;4.15;;;2.10;;
65373;SDS011;52070;53.760;9.678;2023-08-06T13:16:31;3.75;;;1.90;;
65373;SDS011;52070;53.760;9.678;2023-08-06T13:19:00;3.25;;;2.10;;
65373;SDS011;52070;53.760;9.678;2023-08-06T13:21:30;4.90;;;1.90;;
65373;SDS011;52070;53.760;9.678;2023-08-06T13:23:58;2.08;;;1.60;;
65373;SDS011;52070;53.760;9.678;2023-08-06T13:26:25;2.47;;;1.73;;
65373;SDS011;52070;53.760;9.678;2023-08-06T13:28:52;3.60;;;1.90;;
65373;SDS011;52070;53.760;9.678;2023-08-06T13:31:19;4.22;;;2.00;;
65373;SDS011;52070;53.760;9.678;2023-08-06T13:33:46;2.15;;;1.80;;
65373;SDS011;52070;53.760;9.678;2023-08-06T13:36:16;3.55;;;2.20;;
65373;SDS011;52070;53.760;9.678;2023-08-06T13:38:43;3.45;;;2.10;;
65373;SDS011;52070;53.760;9.678;2023-08-06T13:41:10;2.47;;;1.75;;
65373;SDS011;52070;53.760;9.678;2023-08-06T13:43:38;4.90;;;2.40;;
65373;SDS011;52070;53.760;9.678;2023-08-06T13:46:05;2.55;;;2.17;;
65373;SDS011;52070;53.760;9.678;2023-08-06T13:48:32;5.70;;;2.38;;
65373;SDS011;52070;53.760;9.678;2023-08-06T13:50:59;4.82;;;2.08;;
65373;SDS011;52070;53.760;9.678;2023-08-06T13:53:27;3.17;;;2.05;;
65373;SDS011;52070;53.760;9.678;2023-08-06T13:55:55;4.72;;;2.28;;
65373;SDS011;52070;53.760;9.678;2023-08-06T13:58:23;5.25;;;2.30;;
65373;SDS011;52070;53.760;9.678;2023-08-06T14:00:51;4.63;;;2.25;;
65373;SDS011;52070;53.760;9.678;2023-08-06T14:03:19;3.22;;;2.30;;
65373;SDS011;52070;53.760;9.678;2023-08-06T14:05:46;3.08;;;2.30;;
65373;SDS011;52070;53.760;9.678;2023-08-06T14:08:13;3.60;;;2.20;;
65373;SDS011;52070;53.760;9.678;2023-08-06T14:10:42;6.32;;;2.20;;
65373;SDS011;52070;53.760;9.678;2023-08-06T14:13:09;4.85;;;2.10;;
65373;SDS011;52070;53.760;9.678;2023-08-06T14:15:36;3.95;;;2.28;;
65373;SDS011;52070;53.760;9.678;2023-08-06T14:18:05;4.18;;;1.95;;
65373;SDS011;52070;53.760;9.678;2023-08-06T14:20:33;4.82;;;2.03;;
65373;SDS011;52070;53.760;9.678;2023-08-06T14:23:00;4.18;;;2.03;;
65373;SDS011;52070;53.760;9.678;2023-08-06T14:25:27;5.68;;;1.85;;
65373;SDS011;52070;53.760;9.678;2023-08-06T14:27:56;3.75;;;1.88;;
65373;SDS011;52070;53.760;9.678;2023-08-06T14:30:23;6.80;;;2.20;;
65373;SDS011;52070;53.760;9.678;2023-08-06T14:32:50;3.15;;;2.00;;
65373;SDS011;52070;53.760;9.678;2023-08-06T14:35:17;4.13;;;2.03;;
65373;SDS011;52070;53.760;9.678;2023-08-06T14:37:44;3.80;;;1.90;;
65373;SDS011;52070;53.760;9.678;2023-08-06T14:40:11;6.22;;;2.10;;
65373;SDS011;52070;53.760;9.678;2023-08-06T14:42:38;4.18;;;2.10;;
65373;SDS011;52070;53.760;9.678;2023-08-06T14:45:07;4.22;;;2.13;;
65373;SDS011;52070;53.760;9.678;2023-08-06T14:47:34;6.60;;;2.15;;
65373;SDS011;52070;53.760;9.678;2023-08-06T14:50:01;3.33;;;2.03;;
65373;SDS011;52070;53.760;9.678;2023-08-06T14:52:28;3.83;;;2.15;;
65373;SDS011;52070;53.760;9.678;2023-08-06T14:54:57;5.75;;;2.25;;
65373;SDS011;52070;53.760;9.678;2023-08-06T14:57:23;4.70;;;2.00;;